Portada
METAR-TAF:

METAR-TAF

Aeroports :

Bandar Kangan, Iran

latitud: 27-49-14N, longitud: 52-21-08E, altitud: 662 m

Observació

L'informe es va fer fa 41 minuts, a les 15:00 UTC
Vent 12 kt del Sud/Sud-Oest
Temperatura 32°C
Humitat 63%
Pressió 1003 hPa
Visibilitat: 6000 m

METAR: OIBJ 211500Z 21012KT 6000 NSC 32/24 Q1003

Hora: 20:11 (15:41 UTC)


TAF: manca

Observacions i pronòstics meteorològics de més de 4000 aeroports (METAR i TAF).

Les estacions disponibles són els punts grocs i vermells al mapa.

Posi el ratolí al punt desitjat per veure el nom de l'estació.

Feu clic per veure les observacions i els pronòstics meteorològics.

Per canviar el mapa: feu clic els botons verds amb una creu de color negre per apropar; al botó verd amb un guió per allunyar la imatge; o en les fletxes verdes per a mapes adjacents.


METAR-TAF: